createdAt,value
2017-10-19T00:00:04.568Z,14.93
2017-10-19T00:02:32.338Z,11.67
2017-10-19T00:04:59.762Z,13.73
2017-10-19T00:07:27.250Z,13.57
2017-10-19T00:09:55.007Z,12.60
2017-10-19T00:12:22.626Z,14.10
2017-10-19T00:14:50.815Z,12.43
2017-10-19T00:17:18.301Z,14.63
2017-10-19T00:19:45.735Z,13.17
2017-10-19T00:22:13.211Z,13.30
2017-10-19T00:24:40.652Z,13.83
2017-10-19T00:27:08.081Z,14.23
2017-10-19T00:29:35.520Z,13.10
2017-10-19T00:32:03.045Z,13.60
2017-10-19T00:34:30.806Z,13.17
2017-10-19T00:36:58.223Z,13.90
2017-10-19T00:39:25.648Z,13.63
2017-10-19T00:41:53.887Z,13.93
2017-10-19T00:44:21.444Z,14.77
2017-10-19T00:46:48.884Z,13.50
2017-10-19T00:49:16.460Z,12.73
2017-10-19T00:51:44.091Z,12.77
2017-10-19T00:54:11.515Z,13.40
2017-10-19T00:56:39.136Z,13.70
2017-10-19T00:59:06.592Z,13.20
2017-10-19T01:01:34.219Z,13.17
2017-10-19T01:04:01.803Z,14.47
2017-10-19T01:06:29.235Z,14.00
2017-10-19T01:08:56.674Z,15.53
2017-10-19T01:11:24.116Z,16.03
2017-10-19T01:13:51.545Z,12.40
2017-10-19T01:16:19.088Z,15.40
2017-10-19T01:18:46.526Z,13.80
2017-10-19T01:21:14.009Z,12.37
2017-10-19T01:23:41.431Z,14.30
2017-10-19T01:26:08.916Z,12.43
2017-10-19T01:28:36.377Z,13.53
2017-10-19T01:31:03.823Z,13.93
2017-10-19T01:33:31.284Z,15.10
2017-10-19T01:35:58.722Z,12.00
2017-10-19T01:38:26.199Z,15.83
2017-10-19T01:40:53.622Z,12.40
2017-10-19T01:43:21.140Z,13.43
2017-10-19T01:45:48.568Z,16.70
2017-10-19T01:48:16.009Z,24.93
2017-10-19T01:50:43.471Z,19.33
2017-10-19T01:53:10.928Z,16.80
2017-10-19T01:55:38.354Z,24.93
2017-10-19T01:58:05.793Z,23.70
2017-10-19T02:00:33.225Z,26.53
2017-10-19T02:03:00.760Z,18.60
2017-10-19T02:05:28.384Z,22.20
2017-10-19T02:07:55.984Z,22.27
2017-10-19T02:10:23.745Z,18.77
2017-10-19T02:12:52.070Z,14.93
2017-10-19T02:15:19.491Z,16.60
2017-10-19T02:17:46.955Z,15.47
2017-10-19T02:20:14.381Z,14.60
2017-10-19T02:22:41.940Z,13.37
2017-10-19T02:25:09.408Z,13.23
2017-10-19T02:27:36.835Z,14.57
2017-10-19T02:30:04.313Z,14.40
2017-10-19T02:32:31.952Z,13.37
2017-10-19T02:34:59.397Z,12.93
2017-10-19T02:37:26.863Z,11.70
2017-10-19T02:39:54.393Z,12.07
2017-10-19T02:42:21.824Z,13.07
2017-10-19T02:44:49.361Z,12.80
2017-10-19T02:47:16.817Z,14.23
2017-10-19T02:49:44.278Z,14.00
2017-10-19T02:52:12.029Z,13.53
2017-10-19T02:54:39.451Z,15.77
2017-10-19T02:57:07.682Z,13.20
2017-10-19T02:59:35.112Z,13.00
2017-10-19T03:02:02.781Z,12.97
2017-10-19T03:04:30.240Z,13.13
2017-10-19T03:06:57.674Z,13.00
2017-10-19T03:09:25.103Z,11.67
2017-10-19T03:11:52.537Z,13.03
2017-10-19T03:14:20.065Z,13.87
2017-10-19T03:16:47.513Z,13.30
2017-10-19T03:19:14.940Z,17.93
2017-10-19T03:21:42.427Z,12.00
2017-10-19T03:24:10.088Z,13.90
2017-10-19T03:26:37.517Z,12.67
2017-10-19T03:29:05.001Z,12.43
2017-10-19T03:31:32.473Z,12.20
2017-10-19T03:33:59.920Z,13.50
2017-10-19T03:36:27.356Z,12.20
2017-10-19T03:38:54.827Z,12.83
2017-10-19T03:41:22.392Z,11.77
2017-10-19T03:43:49.827Z,13.97
2017-10-19T03:46:17.257Z,13.30
2017-10-19T03:48:44.692Z,13.50
2017-10-19T03:51:12.137Z,12.90
2017-10-19T03:53:39.672Z,12.37
2017-10-19T03:56:07.099Z,12.87
2017-10-19T03:58:34.536Z,13.07
2017-10-19T04:01:02.035Z,15.10
2017-10-19T04:03:29.796Z,13.97
2017-10-19T04:05:57.232Z,14.17
2017-10-19T04:08:24.729Z,12.07
2017-10-19T04:10:52.357Z,14.13
2017-10-19T04:13:19.848Z,12.97
2017-10-19T04:15:47.327Z,14.30
2017-10-19T04:18:15.543Z,14.03
2017-10-19T04:20:43.110Z,12.57
2017-10-19T04:23:10.676Z,13.57
2017-10-19T04:25:38.099Z,13.57
2017-10-19T04:28:05.598Z,13.03
2017-10-19T04:30:33.043Z,12.73
2017-10-19T04:33:00.464Z,12.13
2017-10-19T04:35:27.957Z,12.70
2017-10-19T04:37:55.388Z,12.33
2017-10-19T04:40:22.870Z,16.13
2017-10-19T04:42:50.326Z,13.50
2017-10-19T04:45:17.765Z,13.37
2017-10-19T04:47:45.186Z,12.70
2017-10-19T04:50:12.705Z,13.17
2017-10-19T04:52:40.331Z,13.20
2017-10-19T04:55:07.921Z,13.87
2017-10-19T04:57:35.384Z,12.77
2017-10-19T05:00:02.825Z,14.23
2017-10-19T05:02:30.251Z,14.00
2017-10-19T05:04:57.687Z,16.57
2017-10-19T05:07:25.206Z,14.57
2017-10-19T05:09:52.646Z,13.93
2017-10-19T05:12:20.081Z,14.60
2017-10-19T05:14:47.524Z,19.43
2017-10-19T05:17:15.025Z,12.70
2017-10-19T05:19:42.468Z,16.70
2017-10-19T05:22:09.904Z,21.57
2017-10-19T05:24:39.131Z,14.30
2017-10-19T05:27:06.689Z,13.27
2017-10-19T05:29:34.144Z,15.73
2017-10-19T05:32:01.568Z,16.00
2017-10-19T05:34:29.008Z,12.90
2017-10-19T05:36:56.435Z,14.40
2017-10-19T05:39:23.889Z,14.40
2017-10-19T05:41:51.439Z,16.23
2017-10-19T05:44:18.937Z,11.87
2017-10-19T05:46:46.352Z,13.60
2017-10-19T05:49:13.810Z,14.50
2017-10-19T05:51:41.231Z,11.57
2017-10-19T05:54:08.720Z,12.30
2017-10-19T05:56:36.481Z,12.60
2017-10-19T05:59:03.914Z,16.17
2017-10-19T06:01:31.397Z,12.27
2017-10-19T06:03:59.027Z,12.43
2017-10-19T06:06:26.617Z,12.67
2017-10-19T06:08:54.062Z,12.87
2017-10-19T06:11:21.505Z,13.37
2017-10-19T06:13:48.981Z,12.80
2017-10-19T06:16:16.437Z,13.63
2017-10-19T06:18:43.893Z,11.13
2017-10-19T06:21:11.354Z,11.87
2017-10-19T06:23:38.805Z,15.80
2017-10-19T06:26:06.264Z,15.93
2017-10-19T06:28:33.697Z,13.50
2017-10-19T06:31:01.169Z,13.93
2017-10-19T06:33:28.631Z,20.63
2017-10-19T06:35:56.094Z,17.40
2017-10-19T06:38:23.719Z,15.40
2017-10-19T06:40:51.316Z,14.30
2017-10-19T06:43:18.941Z,19.27
2017-10-19T06:45:46.372Z,15.00
2017-10-19T06:48:14.781Z,14.20
2017-10-19T06:50:42.360Z,15.57
2017-10-19T06:53:09.865Z,14.43
2017-10-19T06:55:37.455Z,15.43
2017-10-19T06:58:04.903Z,16.00
2017-10-19T07:00:32.339Z,14.67
2017-10-19T07:03:00.572Z,16.03
2017-10-19T07:05:28.020Z,17.43
2017-10-19T07:07:55.466Z,15.80
2017-10-19T07:10:22.926Z,16.57
2017-10-19T07:12:50.384Z,14.90
2017-10-19T07:15:17.816Z,14.83
2017-10-19T07:17:45.256Z,15.90
2017-10-19T07:20:12.761Z,15.23
2017-10-19T07:22:40.221Z,14.40
2017-10-19T07:25:07.639Z,16.47
2017-10-19T07:27:35.079Z,13.57
2017-10-19T07:30:02.516Z,18.20
2017-10-19T07:32:29.948Z,14.30
2017-10-19T07:34:57.363Z,14.03
2017-10-19T07:37:24.808Z,14.20
2017-10-19T07:39:53.065Z,14.00
2017-10-19T07:42:21.400Z,12.47
2017-10-19T07:44:48.886Z,13.47
2017-10-19T07:47:16.453Z,14.23
2017-10-19T07:49:43.939Z,14.00
2017-10-19T07:52:11.452Z,13.53
2017-10-19T07:54:39.904Z,16.10
2017-10-19T07:57:07.344Z,18.80
2017-10-19T07:59:34.767Z,22.00
2017-10-19T08:02:02.276Z,17.13
2017-10-19T08:04:29.711Z,14.83
2017-10-19T08:06:57.187Z,15.77
2017-10-19T08:09:24.607Z,15.43
2017-10-19T08:11:52.039Z,18.00
2017-10-19T08:14:19.554Z,17.80
2017-10-19T08:16:46.987Z,18.53
2017-10-19T08:19:14.465Z,23.80
2017-10-19T08:21:41.904Z,16.37
2017-10-19T08:24:09.327Z,16.87
2017-10-19T08:26:37.536Z,15.97
2017-10-19T08:29:05.124Z,17.73
2017-10-19T08:31:32.635Z,22.40
2017-10-19T08:34:00.057Z,17.83
2017-10-19T08:36:27.580Z,16.90
2017-10-19T08:38:55.011Z,17.83
2017-10-19T08:41:22.447Z,17.93
2017-10-19T08:43:49.949Z,16.97
2017-10-19T08:46:17.388Z,19.70
2017-10-19T08:48:44.879Z,20.27
2017-10-19T08:51:12.500Z,17.17
2017-10-19T08:53:39.961Z,18.63
2017-10-19T08:56:07.443Z,17.67
2017-10-19T08:58:34.912Z,18.47
2017-10-19T09:01:02.455Z,18.80
2017-10-19T09:03:29.902Z,20.27
2017-10-19T09:05:57.325Z,19.20
2017-10-19T09:08:24.766Z,21.53
2017-10-19T09:10:52.184Z,19.90
2017-10-19T09:13:19.643Z,19.00
2017-10-19T09:15:47.168Z,17.87
2017-10-19T09:18:14.609Z,19.90
2017-10-19T09:20:42.115Z,22.00
2017-10-19T09:23:09.561Z,17.13
2017-10-19T09:25:36.987Z,18.00
2017-10-19T09:28:04.425Z,16.55
2017-10-19T09:30:31.859Z,16.77
2017-10-19T09:32:59.283Z,17.43
2017-10-19T09:35:26.711Z,21.07
2017-10-19T09:37:54.295Z,14.93
2017-10-19T09:40:21.736Z,17.40
2017-10-19T09:42:49.167Z,16.00
2017-10-19T09:45:16.583Z,20.20
2017-10-19T09:47:44.016Z,16.50
2017-10-19T09:50:11.448Z,17.30
2017-10-19T09:52:38.912Z,18.07
2017-10-19T09:55:06.433Z,15.60
2017-10-19T09:57:33.948Z,17.90
2017-10-19T10:00:01.382Z,22.90
2017-10-19T10:02:28.807Z,18.57
2017-10-19T10:04:56.227Z,15.63
2017-10-19T10:07:23.699Z,16.70
2017-10-19T10:09:51.229Z,18.00
2017-10-19T10:12:18.684Z,17.90
2017-10-19T10:14:46.121Z,15.80
2017-10-19T10:17:13.553Z,14.97
2017-10-19T10:19:41.069Z,15.33
2017-10-19T10:22:08.688Z,15.33
2017-10-19T10:24:36.191Z,16.80
2017-10-19T10:27:03.737Z,24.47
2017-10-19T10:29:31.384Z,17.67
2017-10-19T10:31:58.949Z,14.60
2017-10-19T10:34:26.381Z,13.00
2017-10-19T10:36:53.817Z,14.67
2017-10-19T10:39:21.312Z,14.77
2017-10-19T10:41:48.771Z,14.43
2017-10-19T10:44:16.198Z,14.17
2017-10-19T10:46:43.684Z,14.40
2017-10-19T10:49:11.145Z,14.53
2017-10-19T10:51:38.599Z,14.77
2017-10-19T10:54:06.023Z,15.03
2017-10-19T10:56:33.444Z,10.87
2017-10-19T10:59:00.880Z,12.73
2017-10-19T11:01:28.422Z,14.00
2017-10-19T11:03:55.869Z,11.33
2017-10-19T11:06:23.335Z,11.63
2017-10-19T11:08:50.767Z,19.80
2017-10-19T11:11:18.203Z,14.57
2017-10-19T11:13:45.712Z,12.13
2017-10-19T11:16:13.153Z,12.27
2017-10-19T11:18:40.578Z,12.57
2017-10-19T11:21:08.009Z,12.53
2017-10-19T11:23:35.444Z,12.63
2017-10-19T11:26:02.883Z,13.60
2017-10-19T11:28:30.508Z,13.83
2017-10-19T11:30:57.939Z,13.20
2017-10-19T11:33:25.672Z,13.10
2017-10-19T11:35:53.112Z,14.80
2017-10-19T11:38:20.536Z,13.40
2017-10-19T11:40:47.957Z,15.57
2017-10-19T11:43:15.432Z,14.10
2017-10-19T11:45:42.943Z,14.50
2017-10-19T11:48:10.402Z,13.80
2017-10-19T11:50:37.805Z,11.83
2017-10-19T11:53:05.231Z,12.40
2017-10-19T11:55:32.656Z,14.90
2017-10-19T11:58:00.182Z,11.47
2017-10-19T12:00:27.609Z,11.33
2017-10-19T12:02:55.035Z,12.73
2017-10-19T12:05:22.460Z,12.73
2017-10-19T12:07:50.663Z,11.80
2017-10-19T12:10:18.088Z,11.00
2017-10-19T12:12:45.524Z,12.70
2017-10-19T12:15:13.032Z,10.93
2017-10-19T12:17:40.484Z,13.33
2017-10-19T12:20:07.909Z,11.30
2017-10-19T12:22:35.409Z,10.93
2017-10-19T12:25:02.824Z,9.73
2017-10-19T12:27:30.321Z,11.07
2017-10-19T12:29:58.090Z,11.83
2017-10-19T12:32:25.495Z,17.47
2017-10-19T12:34:52.997Z,11.63
2017-10-19T12:37:20.421Z,10.27
2017-10-19T12:39:47.908Z,9.17
2017-10-19T12:42:15.329Z,10.80
2017-10-19T12:44:42.764Z,10.97
2017-10-19T12:47:10.181Z,8.70
2017-10-19T12:49:37.616Z,9.40
2017-10-19T12:52:05.165Z,10.63
2017-10-19T12:54:32.636Z,16.30
2017-10-19T12:57:00.096Z,9.80
2017-10-19T12:59:27.561Z,12.37
2017-10-19T13:01:55.043Z,10.27
2017-10-19T13:04:22.649Z,8.30
2017-10-19T13:06:50.241Z,12.00
2017-10-19T13:09:17.696Z,10.73
2017-10-19T13:11:45.115Z,14.77
2017-10-19T13:14:12.592Z,10.90
2017-10-19T13:16:40.029Z,10.93
2017-10-19T13:19:07.443Z,8.67
2017-10-19T13:21:34.959Z,8.40
2017-10-19T13:24:02.375Z,12.37
2017-10-19T13:26:29.812Z,8.70
2017-10-19T13:28:57.329Z,9.67
2017-10-19T13:31:24.759Z,9.03
2017-10-19T13:33:52.170Z,9.43
2017-10-19T13:36:19.709Z,8.60
2017-10-19T13:38:47.137Z,8.03
2017-10-19T13:41:14.564Z,8.73
2017-10-19T13:43:42.063Z,9.97
2017-10-19T13:46:09.475Z,8.87
2017-10-19T13:48:36.989Z,9.60
2017-10-19T13:51:04.453Z,8.83
2017-10-19T13:53:32.209Z,8.97
2017-10-19T13:55:59.651Z,9.40
2017-10-19T13:58:27.067Z,16.43
2017-10-19T14:00:54.568Z,10.43
2017-10-19T14:03:22.208Z,12.53
2017-10-19T14:05:49.699Z,9.63
2017-10-19T14:08:17.178Z,8.27
2017-10-19T14:10:44.700Z,8.67
2017-10-19T14:13:12.115Z,19.13
2017-10-19T14:15:39.545Z,10.57
2017-10-19T14:18:06.976Z,8.73
2017-10-19T14:20:34.400Z,9.70
2017-10-19T14:23:01.922Z,8.30
2017-10-19T14:25:29.437Z,9.30
2017-10-19T14:27:56.908Z,10.60
2017-10-19T14:30:24.330Z,8.47
2017-10-19T14:32:51.764Z,8.80
2017-10-19T14:35:19.188Z,9.20
2017-10-19T14:37:46.620Z,10.17
2017-10-19T14:40:14.052Z,8.37
2017-10-19T14:42:41.640Z,14.00
2017-10-19T14:45:09.087Z,9.20
2017-10-19T14:47:36.555Z,8.37
2017-10-19T14:50:03.956Z,8.77
2017-10-19T14:52:31.367Z,8.53
2017-10-19T14:54:58.912Z,7.93
2017-10-19T14:57:26.333Z,8.17
2017-10-19T14:59:53.833Z,9.33
2017-10-19T15:02:21.243Z,9.57
2017-10-19T15:04:48.742Z,10.43
2017-10-19T15:07:16.205Z,8.93
2017-10-19T15:09:43.661Z,8.37
2017-10-19T15:12:11.083Z,7.90
2017-10-19T15:14:38.574Z,13.73
2017-10-19T15:17:05.991Z,13.27
2017-10-19T15:19:33.426Z,8.50
2017-10-19T15:22:00.837Z,9.33
2017-10-19T15:24:28.407Z,8.73
2017-10-19T15:26:55.811Z,7.33
2017-10-19T15:29:23.304Z,8.27
2017-10-19T15:31:50.716Z,7.93
2017-10-19T15:34:18.147Z,8.77
2017-10-19T15:36:45.580Z,8.27
2017-10-19T15:39:13.125Z,7.97
2017-10-19T15:41:40.541Z,7.83
2017-10-19T15:44:08.044Z,8.90
2017-10-19T15:46:35.465Z,8.73
2017-10-19T15:49:02.908Z,9.67
2017-10-19T15:51:30.304Z,7.47
2017-10-19T15:53:57.875Z,8.67
2017-10-19T15:56:25.320Z,11.47
2017-10-19T15:58:52.747Z,8.90
2017-10-19T16:01:20.163Z,8.73
2017-10-19T16:03:47.607Z,17.67
2017-10-19T16:06:15.152Z,17.73
2017-10-19T16:08:42.573Z,9.50
2017-10-19T16:11:11.152Z,10.60
2017-10-19T16:13:39.327Z,11.63
2017-10-19T16:16:06.763Z,8.13
2017-10-19T16:18:34.197Z,10.70
2017-10-19T16:21:01.623Z,12.37
2017-10-19T16:23:29.049Z,9.30
2017-10-19T16:25:57.248Z,9.90
2017-10-19T16:28:24.666Z,18.23
2017-10-19T16:30:52.102Z,10.70
2017-10-19T16:33:19.568Z,9.37
2017-10-19T16:35:47.005Z,10.70
2017-10-19T16:38:14.430Z,9.30
2017-10-19T16:40:41.860Z,9.23
2017-10-19T16:43:10.040Z,8.80
2017-10-19T16:45:37.541Z,15.23
2017-10-19T16:48:04.962Z,9.30
2017-10-19T16:50:32.378Z,9.30
2017-10-19T16:52:59.890Z,10.33
2017-10-19T16:55:27.345Z,8.97
2017-10-19T16:57:54.767Z,9.53
2017-10-19T17:00:22.267Z,10.13
2017-10-19T17:02:49.687Z,12.63
2017-10-19T17:05:17.116Z,10.93
2017-10-19T17:07:44.551Z,10.83
2017-10-19T17:10:12.100Z,10.60
2017-10-19T17:12:39.519Z,10.13
2017-10-19T17:15:06.943Z,9.30
2017-10-19T17:17:34.448Z,9.27
2017-10-19T17:20:01.908Z,9.13
2017-10-19T17:22:29.372Z,9.90
2017-10-19T17:24:56.825Z,19.17
2017-10-19T17:27:24.296Z,11.40
2017-10-19T17:29:51.911Z,11.00
2017-10-19T17:32:19.376Z,9.43
2017-10-19T17:34:46.955Z,14.80
2017-10-19T17:37:14.393Z,11.13
2017-10-19T17:39:41.872Z,11.87
2017-10-19T17:42:09.317Z,10.50
2017-10-19T17:44:36.787Z,10.07
2017-10-19T17:47:04.211Z,11.03
2017-10-19T17:49:31.637Z,10.47
2017-10-19T17:51:59.147Z,11.87
2017-10-19T17:54:26.603Z,12.23
2017-10-19T17:56:54.044Z,11.87
2017-10-19T17:59:21.468Z,10.50
2017-10-19T18:01:48.967Z,10.33
2017-10-19T18:04:16.434Z,10.60
2017-10-19T18:06:43.883Z,11.40
2017-10-19T18:09:11.305Z,12.27
2017-10-19T18:11:38.737Z,14.07
2017-10-19T18:14:06.288Z,14.47
2017-10-19T18:16:35.224Z,10.70
2017-10-19T18:19:02.659Z,17.40
2017-10-19T18:21:30.184Z,12.27
2017-10-19T18:23:57.604Z,14.70
2017-10-19T18:26:25.081Z,13.17
2017-10-19T18:28:52.538Z,13.27
2017-10-19T18:31:20.175Z,12.53
2017-10-19T18:33:47.662Z,11.40
2017-10-19T18:36:15.083Z,10.83
2017-10-19T18:38:42.663Z,20.70
2017-10-19T18:41:10.101Z,10.37
2017-10-19T18:43:37.525Z,11.20
2017-10-19T18:46:04.954Z,12.20
2017-10-19T18:48:32.393Z,16.20
2017-10-19T18:50:59.821Z,11.83
2017-10-19T18:53:27.325Z,11.70
2017-10-19T18:55:54.739Z,12.20
2017-10-19T18:58:22.172Z,12.47
2017-10-19T19:00:50.369Z,13.63
2017-10-19T19:03:17.815Z,12.13
2017-10-19T19:05:45.304Z,12.17
2017-10-19T19:08:12.741Z,11.40
2017-10-19T19:10:40.209Z,11.80
2017-10-19T19:13:07.649Z,15.50
2017-10-19T19:15:35.119Z,11.93
2017-10-19T19:18:02.561Z,13.17
2017-10-19T19:20:30.036Z,16.00
2017-10-19T19:22:57.470Z,15.63
2017-10-19T19:25:24.891Z,13.73
2017-10-19T19:27:52.403Z,12.80
2017-10-19T19:30:19.827Z,13.40
2017-10-19T19:32:47.315Z,13.90
2017-10-19T19:35:14.766Z,13.53
2017-10-19T19:37:42.207Z,12.63
2017-10-19T19:40:09.629Z,12.93
2017-10-19T19:42:37.477Z,16.20
2017-10-19T19:45:05.215Z,17.90
2017-10-19T19:47:32.863Z,20.63
2017-10-19T19:50:00.429Z,12.17
2017-10-19T19:52:27.859Z,13.37
2017-10-19T19:54:55.293Z,12.90
2017-10-19T19:57:22.725Z,15.53
2017-10-19T19:59:50.164Z,14.87
2017-10-19T20:02:17.615Z,14.77
2017-10-19T20:04:45.166Z,17.43
2017-10-19T20:07:12.628Z,15.40
2017-10-19T20:09:40.057Z,21.17
2017-10-19T20:12:07.476Z,19.00
2017-10-19T20:14:34.917Z,17.77
2017-10-19T20:17:02.457Z,21.10
2017-10-19T20:19:29.891Z,16.37
2017-10-19T20:21:57.310Z,14.30
2017-10-19T20:24:24.753Z,12.50
2017-10-19T20:26:52.190Z,19.00
2017-10-19T20:29:19.656Z,14.37
2017-10-19T20:31:47.093Z,15.23
2017-10-19T20:34:14.583Z,14.83
2017-10-19T20:36:42.013Z,13.07
2017-10-19T20:39:09.559Z,14.90
2017-10-19T20:41:37.208Z,13.73
2017-10-19T20:44:04.781Z,15.63
2017-10-19T20:46:32.409Z,14.30
2017-10-19T20:48:59.941Z,14.47
2017-10-19T20:55:56.545Z,15.10
2017-10-19T20:58:24.015Z,13.27
2017-10-19T21:00:51.472Z,12.00
2017-10-19T21:03:18.903Z,15.73
2017-10-19T21:05:46.375Z,14.70
2017-10-19T21:08:13.820Z,14.80
2017-10-19T21:10:41.249Z,17.97
2017-10-19T21:13:08.684Z,23.47
2017-10-19T21:15:36.125Z,16.80
2017-10-19T21:18:03.575Z,16.40
2017-10-19T21:20:31.005Z,13.60
2017-10-19T21:22:58.581Z,14.13
2017-10-19T21:25:26.008Z,15.17
2017-10-19T21:27:53.492Z,17.00
2017-10-19T21:30:21.132Z,15.00
2017-10-19T21:32:48.581Z,17.97
2017-10-19T21:35:16.107Z,16.67
2017-10-19T21:37:43.625Z,16.00
2017-10-19T21:40:11.071Z,15.90
2017-10-19T21:42:38.535Z,14.53
2017-10-19T21:45:05.964Z,16.47
2017-10-19T21:47:33.389Z,14.33
2017-10-19T21:50:00.829Z,14.87
2017-10-19T21:52:28.359Z,12.87
2017-10-19T21:54:55.796Z,14.73
2017-10-19T21:57:23.233Z,15.20
2017-10-19T21:59:50.656Z,13.30
2017-10-19T22:02:18.092Z,14.93
2017-10-19T22:04:45.524Z,15.70
2017-10-19T22:07:12.972Z,16.10
2017-10-19T22:09:40.464Z,14.70
2017-10-19T22:12:07.883Z,15.77
2017-10-19T22:14:35.347Z,15.27
2017-10-19T22:17:02.920Z,14.87
2017-10-19T22:19:30.351Z,14.00
2017-10-19T22:21:57.776Z,13.77
2017-10-19T22:24:25.207Z,13.27
2017-10-19T22:26:52.656Z,14.53
2017-10-19T22:29:20.129Z,17.97
2017-10-19T22:31:47.665Z,16.13
2017-10-19T22:34:15.113Z,13.93
2017-10-19T22:36:42.537Z,15.10
2017-10-19T22:39:10.026Z,13.97
2017-10-19T22:41:37.440Z,17.50
2017-10-19T22:44:04.937Z,11.20
2017-10-19T22:46:32.363Z,22.73
2017-10-19T22:48:59.797Z,10.77
2017-10-19T22:51:27.221Z,10.90
2017-10-19T22:53:54.666Z,11.07
2017-10-19T22:56:22.127Z,11.40
2017-10-19T22:58:49.591Z,11.80
2017-10-19T23:01:17.145Z,11.83
2017-10-19T23:03:44.577Z,12.57
2017-10-19T23:06:11.995Z,12.73
2017-10-19T23:08:39.428Z,11.60
2017-10-19T23:11:06.866Z,14.70
2017-10-19T23:13:34.293Z,12.50
2017-10-19T23:16:01.755Z,11.20
2017-10-19T23:18:29.331Z,23.73
2017-10-19T23:20:56.796Z,11.70
2017-10-19T23:23:24.379Z,11.73
2017-10-19T23:25:51.901Z,13.77
2017-10-19T23:28:19.335Z,17.23
2017-10-19T23:30:46.807Z,22.17
2017-10-19T23:33:14.287Z,12.93
2017-10-19T23:35:41.840Z,15.43
2017-10-19T23:38:09.292Z,13.53
2017-10-19T23:40:36.744Z,13.07
2017-10-19T23:43:04.205Z,15.17
2017-10-19T23:45:31.639Z,11.90
2017-10-19T23:47:59.087Z,14.30
2017-10-19T23:50:26.566Z,11.43
2017-10-19T23:52:54.003Z,12.53
2017-10-19T23:55:21.430Z,13.40
2017-10-19T23:57:48.934Z,12.00
